createdAt,value
2019-05-17T00:02:09.526Z,21.55
2019-05-17T00:04:40.191Z,23.73
2019-05-17T00:07:11.341Z,22.73
2019-05-17T00:09:42.025Z,20.88
2019-05-17T00:12:12.613Z,20.95
2019-05-17T00:14:43.506Z,20.27
2019-05-17T00:17:14.030Z,17.12
2019-05-17T00:19:46.501Z,21.30
2019-05-17T00:22:17.065Z,21.97
2019-05-17T00:24:47.860Z,20.60
2019-05-17T00:27:18.531Z,22.15
2019-05-17T00:29:49.550Z,22.93
2019-05-17T00:32:20.143Z,22.25
2019-05-17T00:34:50.979Z,22.48
2019-05-17T00:37:21.505Z,21.80
2019-05-17T00:39:52.078Z,24.10
2019-05-17T00:42:22.845Z,22.05
2019-05-17T00:44:53.338Z,23.60
2019-05-17T00:47:23.931Z,22.75
2019-05-17T00:49:56.838Z,21.00
2019-05-17T00:52:27.351Z,20.35
2019-05-17T00:54:58.091Z,22.02
2019-05-17T00:57:28.588Z,22.37
2019-05-17T00:59:59.213Z,22.82
2019-05-17T01:02:29.859Z,23.85
2019-05-17T01:05:00.442Z,22.07
2019-05-17T01:07:30.938Z,20.97
2019-05-17T01:10:01.854Z,22.05
2019-05-17T01:12:33.494Z,20.45
2019-05-17T01:15:09.821Z,23.20
2019-05-17T01:17:40.461Z,22.55
2019-05-17T01:20:11.534Z,22.95
2019-05-17T01:22:42.103Z,23.45
2019-05-17T01:25:13.439Z,21.62
2019-05-17T01:27:44.073Z,22.05
2019-05-17T01:30:14.730Z,22.55
2019-05-17T01:32:46.409Z,21.10
2019-05-17T01:35:17.510Z,21.77
2019-05-17T01:38:08.377Z,22.82
2019-05-17T01:40:39.149Z,22.82
2019-05-17T01:43:09.718Z,24.95
2019-05-17T01:45:40.387Z,22.55
2019-05-17T01:48:10.982Z,25.32
2019-05-17T01:50:41.789Z,23.45
2019-05-17T01:53:13.650Z,21.35
2019-05-17T01:55:46.482Z,21.57
2019-05-17T01:58:16.815Z,26.33
2019-05-17T02:00:47.455Z,24.10
2019-05-17T02:03:18.321Z,24.63
2019-05-17T02:05:49.078Z,23.73
2019-05-17T02:08:19.813Z,22.30
2019-05-17T02:10:50.500Z,22.60
2019-05-17T02:13:21.205Z,21.93
2019-05-17T02:15:51.854Z,23.15
2019-05-17T02:18:22.758Z,23.95
2019-05-17T02:20:53.326Z,22.30
2019-05-17T02:23:26.852Z,24.30
2019-05-17T02:25:57.113Z,26.30
2019-05-17T02:28:29.088Z,25.97
2019-05-17T02:31:03.432Z,23.02
2019-05-17T02:33:33.928Z,22.93
2019-05-17T02:36:04.639Z,23.45
2019-05-17T02:38:35.302Z,22.77
2019-05-17T02:41:06.064Z,26.27
2019-05-17T02:43:36.985Z,21.70
2019-05-17T02:46:07.667Z,23.75
2019-05-17T02:48:38.627Z,23.95
2019-05-17T02:51:12.757Z,26.23
2019-05-17T02:53:42.907Z,22.42
2019-05-17T02:56:13.955Z,21.40
2019-05-17T02:58:44.639Z,23.42
2019-05-17T03:01:15.440Z,21.90
2019-05-17T03:03:46.019Z,20.35
2019-05-17T03:06:17.197Z,24.87
2019-05-17T03:08:47.951Z,24.23
2019-05-17T03:11:22.439Z,25.25
2019-05-17T03:13:52.615Z,20.95
2019-05-17T03:16:23.887Z,23.47
2019-05-17T03:18:54.981Z,20.62
2019-05-17T03:21:25.568Z,22.20
2019-05-17T03:23:56.319Z,24.23
2019-05-17T03:26:26.843Z,24.05
2019-05-17T03:28:57.452Z,25.02
2019-05-17T03:31:34.307Z,21.25
2019-05-17T03:34:06.460Z,22.48
2019-05-17T03:36:36.259Z,25.10
2019-05-17T03:39:07.675Z,23.92
2019-05-17T03:41:38.323Z,23.40
2019-05-17T03:44:08.986Z,26.02
2019-05-17T03:46:42.360Z,26.82
2019-05-17T03:49:13.146Z,27.98
2019-05-17T03:51:44.260Z,26.62
2019-05-17T03:54:15.032Z,23.85
2019-05-17T03:56:47.065Z,23.38
2019-05-17T03:59:17.663Z,23.75
2019-05-17T04:01:48.604Z,25.88
2019-05-17T04:04:22.662Z,25.52
2019-05-17T04:06:52.595Z,26.02
2019-05-17T04:09:23.478Z,27.85
2019-05-17T04:11:54.393Z,25.60
2019-05-17T04:14:25.001Z,27.10
2019-05-17T04:16:55.563Z,27.25
2019-05-17T04:19:26.227Z,27.52
2019-05-17T04:21:56.871Z,26.25
2019-05-17T04:24:27.624Z,24.92
2019-05-17T04:26:58.323Z,25.85
2019-05-17T04:29:28.831Z,26.57
2019-05-17T04:31:59.591Z,26.40
2019-05-17T04:34:33.259Z,27.02
2019-05-17T04:37:04.321Z,30.62
2019-05-17T04:39:34.793Z,30.40
2019-05-17T04:42:05.667Z,26.85
2019-05-17T04:44:36.986Z,27.75
2019-05-17T04:47:07.719Z,28.77
2019-05-17T04:49:38.359Z,27.15
2019-05-17T04:52:10.034Z,26.62
2019-05-17T04:54:42.439Z,29.20
2019-05-17T04:57:13.327Z,27.45
2019-05-17T04:59:44.376Z,29.63
2019-05-17T05:02:15.418Z,27.48
2019-05-17T05:04:46.871Z,25.48
2019-05-17T05:07:17.569Z,26.68
2019-05-17T05:09:48.547Z,28.50
2019-05-17T05:12:19.073Z,24.77
2019-05-17T05:14:52.257Z,27.90
2019-05-17T05:17:23.432Z,33.70
2019-05-17T05:19:54.109Z,33.10
2019-05-17T05:22:24.712Z,27.75
2019-05-17T05:24:55.230Z,27.93
2019-05-17T05:27:26.058Z,32.67
2019-05-17T05:29:56.930Z,29.72
2019-05-17T05:32:27.704Z,29.63
2019-05-17T05:34:58.578Z,28.47
2019-05-17T05:37:29.393Z,28.35
2019-05-17T05:40:02.113Z,28.02
2019-05-17T05:42:32.724Z,26.82
2019-05-17T05:45:03.703Z,29.48
2019-05-17T05:47:34.322Z,28.77
2019-05-17T05:50:06.894Z,31.85
2019-05-17T05:52:37.458Z,26.93
2019-05-17T05:55:08.745Z,28.42
2019-05-17T05:57:41.637Z,27.00
2019-05-17T06:00:13.929Z,27.40
2019-05-17T06:02:44.570Z,24.07
2019-05-17T06:05:17.360Z,28.62
2019-05-17T06:07:48.047Z,28.10
2019-05-17T06:10:18.713Z,27.42
2019-05-17T06:12:51.626Z,26.25
2019-05-17T06:15:22.322Z,23.70
2019-05-17T06:17:52.898Z,23.83
2019-05-17T06:20:23.878Z,26.07
2019-05-17T06:22:54.601Z,28.38
2019-05-17T06:25:25.494Z,23.98
2019-05-17T06:27:56.153Z,29.48
2019-05-17T06:30:26.797Z,25.35
2019-05-17T06:32:57.329Z,30.27
2019-05-17T06:35:28.215Z,23.40
2019-05-17T06:37:58.814Z,20.88
2019-05-17T06:40:29.511Z,24.12
2019-05-17T06:43:03.981Z,23.80
2019-05-17T06:45:32.649Z,22.17
2019-05-17T06:48:04.362Z,22.13
2019-05-17T06:50:35.053Z,23.10
2019-05-17T06:53:05.737Z,19.45
2019-05-17T06:55:36.382Z,19.82
2019-05-17T06:58:07.167Z,18.90
2019-05-17T07:00:40.255Z,19.92
2019-05-17T07:03:10.181Z,18.55
2019-05-17T07:05:42.425Z,17.05
2019-05-17T07:08:12.928Z,17.32
2019-05-17T07:10:43.598Z,17.40
2019-05-17T07:13:14.290Z,16.05
2019-05-17T07:15:47.965Z,18.65
2019-05-17T07:18:19.367Z,14.68
2019-05-17T07:20:50.273Z,16.52
2019-05-17T07:23:21.051Z,18.37
2019-05-17T07:25:51.578Z,16.05
2019-05-17T07:28:22.084Z,17.25
2019-05-17T07:30:52.685Z,18.25
2019-05-17T07:33:23.646Z,18.48
2019-05-17T07:35:54.486Z,17.35
2019-05-17T07:38:25.178Z,15.53
2019-05-17T07:40:55.714Z,17.52
2019-05-17T07:43:26.433Z,16.97
2019-05-17T07:45:56.966Z,16.00
2019-05-17T07:48:27.579Z,15.90
2019-05-17T07:50:59.408Z,17.07
2019-05-17T07:53:30.828Z,15.20
2019-05-17T07:56:01.506Z,15.93
2019-05-17T07:58:32.225Z,13.80
2019-05-17T08:01:02.869Z,15.15
2019-05-17T08:03:33.582Z,15.03
2019-05-17T08:06:04.238Z,14.83
2019-05-17T08:08:34.947Z,13.95
2019-05-17T08:11:05.533Z,13.13
2019-05-17T08:13:36.132Z,13.62
2019-05-17T08:16:07.185Z,11.55
2019-05-17T08:18:40.111Z,13.20
2019-05-17T08:21:10.577Z,22.48
2019-05-17T08:23:41.543Z,15.68
2019-05-17T08:26:12.305Z,13.40
2019-05-17T08:28:42.846Z,12.37
2019-05-17T08:31:13.543Z,11.03
2019-05-17T08:33:44.149Z,12.00
2019-05-17T08:36:14.663Z,12.18
2019-05-17T08:38:45.547Z,12.15
2019-05-17T08:41:17.621Z,11.93
2019-05-17T08:43:51.176Z,12.47
2019-05-17T08:46:20.934Z,12.43
2019-05-17T08:48:51.610Z,13.38
2019-05-17T08:51:22.357Z,12.15
2019-05-17T08:53:53.026Z,12.93
2019-05-17T08:56:23.610Z,13.55
2019-05-17T08:58:55.217Z,13.25
2019-05-17T09:01:25.863Z,12.40
2019-05-17T09:03:56.510Z,13.60
2019-05-17T09:06:29.171Z,15.18
2019-05-17T09:09:00.803Z,14.73
2019-05-17T09:11:33.413Z,11.35
2019-05-17T09:14:04.557Z,12.37
2019-05-17T09:16:35.490Z,12.98
2019-05-17T09:19:06.168Z,13.03
2019-05-17T09:21:36.838Z,11.68
2019-05-17T09:24:10.246Z,15.15
2019-05-17T09:26:40.250Z,11.45
2019-05-17T09:29:11.000Z,12.23
2019-05-17T09:31:42.983Z,11.48
2019-05-17T09:34:13.633Z,12.05
2019-05-17T09:36:44.563Z,11.40
2019-05-17T09:39:15.226Z,11.25
2019-05-17T09:41:45.937Z,12.68
2019-05-17T09:44:16.689Z,11.95
2019-05-17T09:46:47.305Z,12.53
2019-05-17T09:49:19.296Z,15.68
2019-05-17T09:51:51.080Z,12.47
2019-05-17T09:54:37.118Z,12.70
2019-05-17T09:56:54.355Z,13.35
2019-05-17T09:59:25.019Z,14.85
2019-05-17T10:01:55.914Z,11.57
2019-05-17T10:04:26.466Z,15.60
2019-05-17T10:06:59.256Z,12.58
2019-05-17T10:09:29.160Z,14.53
2019-05-17T10:12:00.062Z,11.95
2019-05-17T10:14:31.388Z,11.35
2019-05-17T10:17:02.200Z,11.55
2019-05-17T10:19:32.946Z,12.00
2019-05-17T10:22:03.703Z,12.82
2019-05-17T10:24:38.826Z,13.85
2019-05-17T10:27:06.857Z,13.68
2019-05-17T10:29:39.349Z,10.88
2019-05-17T10:32:10.463Z,9.88
2019-05-17T10:34:42.331Z,11.55
2019-05-17T10:37:14.052Z,10.80
2019-05-17T10:39:45.607Z,13.58
2019-05-17T10:42:16.270Z,10.65
2019-05-17T10:44:47.913Z,10.48
2019-05-17T10:47:20.022Z,10.58
2019-05-17T10:49:50.735Z,10.00
2019-05-17T10:52:21.437Z,9.33
2019-05-17T10:54:52.001Z,8.98
2019-05-17T10:57:22.623Z,11.70
2019-05-17T10:59:53.595Z,9.03
2019-05-17T11:02:24.271Z,11.35
2019-05-17T11:04:55.268Z,9.20
2019-05-17T11:07:26.215Z,12.75
2019-05-17T11:09:56.775Z,8.80
2019-05-17T11:12:28.508Z,8.93
2019-05-17T11:15:10.398Z,9.58
2019-05-17T11:17:31.608Z,10.98
2019-05-17T11:20:02.345Z,8.63
2019-05-17T11:22:33.166Z,8.53
2019-05-17T11:25:06.139Z,7.53
2019-05-17T11:27:36.869Z,9.50
2019-05-17T11:30:08.569Z,7.87
2019-05-17T11:32:39.262Z,8.80
2019-05-17T11:35:10.219Z,7.78
2019-05-17T11:37:40.773Z,9.18
2019-05-17T11:40:11.814Z,8.93
2019-05-17T11:42:43.789Z,8.83
2019-05-17T11:45:27.452Z,5.97
2019-05-17T11:47:48.023Z,7.17
2019-05-17T11:50:18.998Z,8.38
2019-05-17T11:52:49.552Z,7.25
2019-05-17T11:55:20.318Z,6.62
2019-05-17T11:57:50.954Z,6.25
2019-05-17T12:00:23.083Z,9.77
2019-05-17T12:02:53.710Z,5.67
2019-05-17T12:05:24.620Z,6.47
2019-05-17T12:07:55.121Z,5.62
2019-05-17T12:10:25.935Z,6.25
2019-05-17T12:12:56.908Z,6.85
2019-05-17T12:15:42.241Z,7.45
2019-05-17T12:18:00.131Z,6.00
2019-05-17T12:20:30.761Z,6.78
2019-05-17T12:23:01.558Z,5.80
2019-05-17T12:25:32.231Z,7.28
2019-05-17T12:28:03.859Z,7.25
2019-05-17T12:30:34.495Z,6.35
2019-05-17T12:33:05.275Z,5.08
2019-05-17T12:35:35.974Z,5.20
2019-05-17T12:38:06.939Z,6.03
2019-05-17T12:40:37.615Z,5.55
2019-05-17T12:43:08.204Z,5.12
2019-05-17T12:45:39.735Z,4.75
2019-05-17T12:48:10.917Z,4.17
2019-05-17T12:50:41.630Z,6.20
2019-05-17T12:53:12.324Z,6.25
2019-05-17T12:55:44.355Z,8.23
2019-05-17T12:58:15.003Z,7.60
2019-05-17T13:00:45.567Z,9.13
2019-05-17T13:03:16.162Z,6.40
2019-05-17T13:05:47.086Z,6.85
2019-05-17T13:08:17.923Z,5.00
2019-05-17T13:10:48.439Z,7.10
2019-05-17T13:13:19.078Z,9.50
2019-05-17T13:15:49.938Z,6.55
2019-05-17T13:18:20.498Z,6.83
2019-05-17T13:20:51.162Z,7.58
2019-05-17T13:23:22.332Z,5.45
2019-05-17T13:25:53.884Z,6.40
2019-05-17T13:28:24.739Z,4.85
2019-05-17T13:30:55.721Z,6.92
2019-05-17T13:33:29.117Z,7.05
2019-05-17T13:35:58.654Z,5.72
2019-05-17T13:38:29.202Z,5.65
2019-05-17T13:40:59.790Z,5.22
2019-05-17T13:43:30.545Z,4.83
2019-05-17T13:46:01.603Z,3.85
2019-05-17T13:48:33.563Z,3.65
2019-05-17T13:51:04.336Z,4.40
2019-05-17T13:53:34.971Z,3.30
2019-05-17T13:56:05.631Z,3.15
2019-05-17T13:58:36.155Z,3.58
2019-05-17T14:01:06.830Z,4.35
2019-05-17T14:03:37.540Z,3.12
2019-05-17T14:06:08.271Z,4.00
2019-05-17T14:08:38.802Z,4.83
2019-05-17T14:11:09.585Z,4.58
2019-05-17T14:13:40.102Z,4.95
2019-05-17T14:16:10.594Z,5.03
2019-05-17T14:18:41.264Z,4.20
2019-05-17T14:21:12.178Z,4.45
2019-05-17T14:23:43.083Z,6.95
2019-05-17T14:26:14.112Z,3.75
2019-05-17T14:28:45.062Z,3.15
2019-05-17T14:31:15.643Z,3.62
2019-05-17T14:33:46.225Z,4.00
2019-05-17T14:36:16.865Z,2.67
2019-05-17T14:38:47.607Z,6.12
2019-05-17T14:41:18.306Z,7.30
2019-05-17T14:43:49.283Z,2.77
2019-05-17T14:46:20.191Z,3.52
2019-05-17T14:48:50.712Z,3.77
2019-05-17T14:51:22.421Z,5.62
2019-05-17T14:53:53.333Z,2.65
2019-05-17T14:56:25.411Z,2.60
2019-05-17T14:58:56.227Z,2.20
2019-05-17T15:01:26.927Z,2.62
2019-05-17T15:03:57.426Z,2.10
2019-05-17T15:06:28.057Z,2.00
2019-05-17T15:08:58.621Z,2.20
2019-05-17T15:11:29.333Z,1.70
2019-05-17T15:13:59.898Z,1.70
2019-05-17T15:16:30.510Z,3.10
2019-05-17T15:19:01.107Z,3.05
2019-05-17T15:21:32.029Z,5.03
2019-05-17T15:24:03.971Z,5.47
2019-05-17T15:26:35.754Z,3.33
2019-05-17T15:29:07.647Z,2.52
2019-05-17T15:31:38.416Z,2.65
2019-05-17T15:34:09.053Z,2.02
2019-05-17T15:36:39.614Z,1.90
2019-05-17T15:39:10.262Z,2.08
2019-05-17T15:41:40.937Z,2.40
2019-05-17T15:44:11.522Z,1.60
2019-05-17T15:46:42.159Z,1.90
2019-05-17T15:49:12.782Z,3.42
2019-05-17T15:51:43.524Z,1.77
2019-05-17T15:54:14.229Z,5.97
2019-05-17T15:56:44.731Z,3.62
2019-05-17T15:59:15.333Z,4.53
2019-05-17T16:01:46.287Z,1.30
2019-05-17T16:04:16.880Z,1.30
2019-05-17T16:06:47.520Z,1.40
2019-05-17T16:09:18.404Z,1.60
2019-05-17T16:11:48.995Z,3.58
2019-05-17T16:14:19.650Z,1.50
2019-05-17T16:16:50.180Z,1.77
2019-05-17T16:19:20.820Z,3.92
2019-05-17T16:21:51.501Z,3.10
2019-05-17T16:24:21.997Z,1.90
2019-05-17T16:26:52.591Z,1.40
2019-05-17T16:29:23.079Z,3.95
2019-05-17T16:31:53.594Z,2.12
2019-05-17T16:34:24.399Z,1.62
2019-05-17T16:36:54.916Z,2.30
2019-05-17T16:39:25.474Z,1.90
2019-05-17T16:41:56.558Z,2.12
2019-05-17T16:44:27.107Z,1.60
2019-05-17T16:46:57.765Z,2.08
2019-05-17T16:49:28.645Z,3.10
2019-05-17T16:51:59.442Z,1.82
2019-05-17T16:54:30.416Z,1.70
2019-05-17T16:57:01.118Z,2.02
2019-05-17T16:59:31.687Z,5.20
2019-05-17T17:02:02.471Z,7.03
2019-05-17T17:04:33.080Z,3.17
2019-05-17T17:07:03.739Z,3.15
2019-05-17T17:09:34.967Z,2.58
2019-05-17T17:12:05.954Z,1.87
2019-05-17T17:14:36.651Z,1.67
2019-05-17T17:17:11.427Z,4.83
2019-05-17T17:19:39.563Z,3.02
2019-05-17T17:22:10.055Z,1.45
2019-05-17T17:24:40.709Z,1.70
2019-05-17T17:27:11.355Z,2.55
2019-05-17T17:29:42.128Z,2.12
2019-05-17T17:32:21.186Z,2.65
2019-05-17T17:34:45.270Z,2.17
2019-05-17T17:37:15.835Z,7.22
2019-05-17T17:39:46.942Z,2.30
2019-05-17T17:42:17.887Z,4.37
2019-05-17T17:44:48.493Z,4.25
2019-05-17T17:47:22.430Z,2.35
2019-05-17T17:49:53.908Z,3.35
2019-05-17T17:52:25.540Z,5.37
2019-05-17T17:54:56.317Z,2.15
2019-05-17T17:57:26.950Z,2.27
2019-05-17T17:59:57.684Z,3.00
2019-05-17T18:02:28.421Z,2.00
2019-05-17T18:04:59.147Z,18.27
2019-05-17T18:07:29.703Z,5.85
2019-05-17T18:10:00.218Z,5.92
2019-05-17T18:12:30.816Z,3.20
2019-05-17T18:15:04.421Z,5.20
2019-05-17T18:17:39.192Z,4.87
2019-05-17T18:20:06.370Z,2.12
2019-05-17T18:22:37.241Z,2.80
2019-05-17T18:25:08.078Z,2.47
2019-05-17T18:27:38.667Z,1.65
2019-05-17T18:30:09.737Z,1.70
2019-05-17T18:32:40.509Z,1.75
2019-05-17T18:35:11.357Z,1.70
2019-05-17T18:37:42.016Z,1.52
2019-05-17T18:40:13.213Z,5.35
2019-05-17T18:42:44.019Z,2.65
2019-05-17T18:45:15.513Z,4.25
2019-05-17T18:47:46.135Z,2.75
2019-05-17T18:50:16.891Z,4.92
2019-05-17T18:52:47.557Z,2.17
2019-05-17T18:55:18.285Z,4.20
2019-05-17T18:57:49.490Z,4.12
2019-05-17T19:00:20.350Z,4.08
2019-05-17T19:02:51.002Z,2.87
2019-05-17T19:05:21.751Z,2.30
2019-05-17T19:07:52.407Z,3.77
2019-05-17T19:10:23.063Z,2.72
2019-05-17T19:12:53.576Z,3.37
2019-05-17T19:15:24.343Z,1.75
2019-05-17T19:17:54.929Z,4.80
2019-05-17T19:20:25.576Z,2.00
2019-05-17T19:22:56.538Z,2.27
2019-05-17T19:25:27.103Z,2.30
2019-05-17T19:27:57.873Z,4.30
2019-05-17T19:30:28.503Z,2.67
2019-05-17T19:32:59.458Z,2.42
2019-05-17T19:35:30.211Z,4.35
2019-05-17T19:38:00.832Z,2.85
2019-05-17T19:40:31.475Z,2.10
2019-05-17T19:43:02.404Z,3.17
2019-05-17T19:45:33.038Z,2.95
2019-05-17T19:48:03.731Z,2.27
2019-05-17T19:50:34.370Z,4.03
2019-05-17T19:53:05.214Z,3.58
2019-05-17T19:55:35.775Z,2.80
2019-05-17T19:58:06.556Z,4.20
2019-05-17T20:00:37.155Z,4.47
2019-05-17T20:03:07.996Z,2.30
2019-05-17T20:05:38.563Z,3.72
2019-05-17T20:08:23.079Z,3.67
2019-05-17T20:10:53.714Z,3.40
2019-05-17T20:13:25.146Z,3.12
2019-05-17T20:15:56.960Z,13.18
2019-05-17T20:18:28.243Z,6.75
2019-05-17T20:20:58.799Z,4.47
2019-05-17T20:23:29.779Z,2.22
2019-05-17T20:26:01.374Z,4.67
2019-05-17T20:28:32.123Z,5.72
2019-05-17T20:31:02.738Z,2.80
2019-05-17T20:33:33.359Z,6.17
2019-05-17T20:36:04.135Z,2.90
2019-05-17T20:38:34.767Z,4.08
2019-05-17T20:41:05.615Z,3.27
2019-05-17T20:43:36.255Z,5.33
2019-05-17T20:46:06.981Z,7.05
2019-05-17T20:48:37.483Z,3.45
2019-05-17T20:51:08.138Z,3.00
2019-05-17T20:53:38.642Z,3.65
2019-05-17T20:56:09.306Z,5.47
2019-05-17T20:58:40.050Z,4.50
2019-05-17T21:01:10.745Z,3.72
2019-05-17T21:03:41.759Z,3.47
2019-05-17T21:06:12.413Z,3.50
2019-05-17T21:08:45.867Z,3.87
2019-05-17T21:11:15.598Z,3.25
2019-05-17T21:13:46.380Z,3.60
2019-05-17T21:16:16.985Z,3.25
2019-05-17T21:18:47.657Z,3.15
2019-05-17T21:21:18.231Z,3.42
2019-05-17T21:23:48.839Z,7.15
2019-05-17T21:26:19.545Z,4.15
2019-05-17T21:28:50.161Z,5.80
2019-05-17T21:31:20.754Z,4.08
2019-05-17T21:33:51.346Z,7.78
2019-05-17T21:36:21.953Z,3.60
2019-05-17T21:38:52.882Z,4.15
2019-05-17T21:41:23.514Z,5.83
2019-05-17T21:43:54.218Z,5.58
2019-05-17T21:46:24.715Z,11.68
2019-05-17T21:48:55.615Z,13.10
2019-05-17T21:51:26.114Z,9.75
2019-05-17T21:53:56.750Z,5.70
2019-05-17T21:56:27.331Z,5.85
2019-05-17T21:58:57.862Z,5.65
2019-05-17T22:01:30.186Z,9.63
2019-05-17T22:04:01.041Z,5.40
2019-05-17T22:06:31.746Z,4.97
2019-05-17T22:09:02.702Z,7.12
2019-05-17T22:11:36.013Z,11.05
2019-05-17T22:14:06.796Z,4.65
2019-05-17T22:16:37.446Z,4.20
2019-05-17T22:19:08.190Z,4.37
2019-05-17T22:21:39.221Z,5.03
2019-05-17T22:24:09.907Z,5.60
2019-05-17T22:26:40.419Z,4.75
2019-05-17T22:29:11.065Z,9.10
2019-05-17T22:31:41.652Z,8.00
2019-05-17T22:34:12.225Z,7.10
2019-05-17T22:36:42.827Z,4.80
2019-05-17T22:39:13.409Z,4.40
2019-05-17T22:41:46.013Z,5.05
2019-05-17T22:44:16.570Z,5.12
2019-05-17T22:46:47.232Z,4.60
2019-05-17T22:49:17.844Z,6.12
2019-05-17T22:51:48.733Z,8.25
2019-05-17T22:54:19.665Z,5.97
2019-05-17T22:56:50.371Z,4.42
2019-05-17T22:59:21.054Z,11.15
2019-05-17T23:01:52.098Z,5.67
2019-05-17T23:04:22.902Z,5.53
2019-05-17T23:06:53.967Z,4.95
2019-05-17T23:09:24.587Z,6.03
2019-05-17T23:11:55.233Z,6.92
2019-05-17T23:14:25.749Z,5.15
2019-05-17T23:16:56.246Z,8.28
2019-05-17T23:19:26.869Z,4.05
2019-05-17T23:21:57.374Z,4.47
2019-05-17T23:24:27.997Z,4.83
2019-05-17T23:26:58.671Z,5.25
2019-05-17T23:29:29.762Z,6.90
2019-05-17T23:32:00.320Z,5.92
2019-05-17T23:34:31.017Z,4.20
2019-05-17T23:37:01.946Z,5.72
2019-05-17T23:39:32.537Z,5.03
2019-05-17T23:42:03.216Z,5.67
2019-05-17T23:44:34.054Z,5.95
2019-05-17T23:47:07.401Z,7.65
2019-05-17T23:49:37.299Z,4.55
2019-05-17T23:52:07.821Z,6.10
2019-05-17T23:54:38.668Z,4.80
2019-05-17T23:57:09.421Z,6.30
2019-05-17T23:59:39.877Z,6.10
